createdAt,value
2023-11-11T00:00:26.199Z,98.49
2023-11-11T00:01:27.127Z,98.53
2023-11-11T00:02:26.106Z,98.74
2023-11-11T00:03:26.265Z,98.84
2023-11-11T00:04:26.179Z,98.84
2023-11-11T00:05:26.107Z,98.94
2023-11-11T00:06:26.099Z,98.94
2023-11-11T00:07:26.085Z,98.94
2023-11-11T00:08:26.029Z,98.94
2023-11-11T00:09:26.049Z,99.05
2023-11-11T00:10:26.020Z,99.15
2023-11-11T00:11:26.025Z,99.19
2023-11-11T00:12:26.056Z,99.30
2023-11-11T00:13:25.993Z,99.30
2023-11-11T00:14:25.980Z,99.30
2023-11-11T00:15:25.993Z,99.40
2023-11-11T00:16:25.991Z,99.40
2023-11-11T00:17:25.943Z,99.51
2023-11-11T00:18:25.969Z,99.44
2023-11-11T00:19:25.935Z,99.44
2023-11-11T00:20:25.934Z,99.55
2023-11-11T00:21:25.958Z,99.55
2023-11-11T00:22:25.941Z,99.70
2023-11-11T00:23:25.903Z,99.91
2023-11-11T00:24:25.958Z,99.99
2023-11-11T00:25:25.868Z,99.99
2023-11-11T00:26:25.853Z,99.99
2023-11-11T00:27:25.868Z,99.99
2023-11-11T00:28:25.828Z,99.99
2023-11-11T00:29:25.819Z,99.99
2023-11-11T00:30:25.842Z,99.99
2023-11-11T00:31:25.805Z,99.99
2023-11-11T00:32:25.810Z,99.99
2023-11-11T00:33:25.835Z,99.99
2023-11-11T00:34:25.772Z,99.99
2023-11-11T00:35:25.759Z,99.99
2023-11-11T00:36:25.761Z,99.99
2023-11-11T00:37:25.750Z,99.99
2023-11-11T00:38:25.725Z,99.99
2023-11-11T00:39:25.775Z,99.99
2023-11-11T00:40:25.731Z,99.99
2023-11-11T00:41:25.700Z,99.99
2023-11-11T00:42:25.719Z,99.99
2023-11-11T00:43:25.681Z,99.99
2023-11-11T00:44:25.667Z,99.99
2023-11-11T00:45:25.702Z,99.99
2023-11-11T00:46:25.662Z,99.99
2023-11-11T00:47:25.671Z,99.99
2023-11-11T00:48:25.652Z,99.99
2023-11-11T00:49:25.645Z,99.99
2023-11-11T00:50:25.616Z,99.99
2023-11-11T00:51:25.622Z,99.99
2023-11-11T00:52:25.595Z,99.99
2023-11-11T00:53:25.589Z,99.99
2023-11-11T00:54:25.589Z,99.99
2023-11-11T00:55:25.551Z,99.99
2023-11-11T00:56:25.564Z,99.99
2023-11-11T00:57:25.550Z,99.99
2023-11-11T00:58:25.529Z,99.99
2023-11-11T00:59:25.501Z,99.99
2023-11-11T01:00:25.517Z,99.99
2023-11-11T01:01:25.536Z,99.99
2023-11-11T01:02:25.465Z,99.99
2023-11-11T01:03:25.513Z,99.99
2023-11-11T01:04:25.536Z,99.99
2023-11-11T01:05:25.434Z,99.99
2023-11-11T01:06:25.446Z,99.99
2023-11-11T01:07:25.428Z,99.99
2023-11-11T01:08:25.399Z,99.99
2023-11-11T01:09:25.462Z,99.99
2023-11-11T01:10:25.406Z,99.99
2023-11-11T01:11:25.376Z,99.99
2023-11-11T01:12:25.374Z,99.99
2023-11-11T01:13:25.366Z,99.99
2023-11-11T01:14:25.350Z,99.99
2023-11-11T01:15:25.379Z,99.99
2023-11-11T01:16:25.334Z,99.99
2023-11-11T01:17:25.376Z,99.99
2023-11-11T01:18:25.328Z,99.99
2023-11-11T01:19:25.304Z,99.99
2023-11-11T01:21:59.224Z,99.99
2023-11-11T01:22:59.814Z,99.99
2023-11-11T01:23:59.840Z,99.99
2023-11-11T01:25:00.808Z,99.99
2023-11-11T01:25:59.788Z,99.99
2023-11-11T01:26:59.887Z,99.99
2023-11-11T01:27:59.794Z,99.99
2023-11-11T01:29:00.976Z,99.99
2023-11-11T01:30:00.142Z,99.99
2023-11-11T01:30:59.967Z,99.99
2023-11-11T01:32:00.301Z,99.99
2023-11-11T01:32:59.731Z,99.99
2023-11-11T01:33:59.673Z,99.99
2023-11-11T01:34:59.684Z,99.99
2023-11-11T01:35:59.642Z,99.99
2023-11-11T01:36:59.650Z,99.99
2023-11-11T01:37:59.676Z,99.99
2023-11-11T01:38:59.661Z,99.99
2023-11-11T01:39:59.634Z,99.99
2023-11-11T01:40:59.625Z,99.99
2023-11-11T01:41:59.589Z,99.99
2023-11-11T01:42:59.618Z,99.99
2023-11-11T01:43:59.565Z,99.99
2023-11-11T01:44:59.581Z,99.99
2023-11-11T01:45:59.533Z,99.99
2023-11-11T01:46:59.555Z,99.99
2023-11-11T01:47:59.624Z,99.99
2023-11-11T01:48:59.536Z,99.99
2023-11-11T01:49:59.531Z,99.99
2023-11-11T01:50:59.529Z,99.99
2023-11-11T01:51:59.486Z,99.99
2023-11-11T01:52:59.505Z,99.99
2023-11-11T01:53:59.474Z,99.99
2023-11-11T01:54:59.467Z,99.99
2023-11-11T01:55:59.486Z,99.99
2023-11-11T01:56:59.461Z,99.99
2023-11-11T01:57:59.452Z,99.99
2023-11-11T01:58:59.442Z,99.99
2023-11-11T01:59:59.397Z,99.99
2023-11-11T02:00:59.465Z,99.99
2023-11-11T02:01:59.419Z,99.99
2023-11-11T02:02:59.465Z,99.99
2023-11-11T02:03:59.522Z,99.99
2023-11-11T02:04:59.422Z,99.99
2023-11-11T02:05:59.344Z,99.99
2023-11-11T02:06:59.365Z,99.99
2023-11-11T02:07:59.321Z,99.99
2023-11-11T02:08:59.327Z,99.99
2023-11-11T02:09:59.292Z,99.99
2023-11-11T02:10:59.316Z,99.99
2023-11-11T02:11:59.292Z,99.99
2023-11-11T02:26:20.309Z,99.99
2023-11-11T02:27:21.298Z,99.99
2023-11-11T02:28:21.233Z,99.99
2023-11-11T02:29:21.226Z,99.99
2023-11-11T02:30:21.239Z,99.99
2023-11-11T02:31:21.264Z,99.99
2023-11-11T02:32:21.222Z,99.99
2023-11-11T02:33:21.311Z,99.99
2023-11-11T02:34:21.170Z,99.99
2023-11-11T02:35:21.153Z,99.99
2023-11-11T02:36:21.173Z,99.99
2023-11-11T02:37:21.133Z,99.99
2023-11-11T02:38:21.138Z,99.99
2023-11-11T02:39:24.097Z,99.99
2023-11-11T02:40:21.130Z,99.99
2023-11-11T02:41:21.087Z,99.99
2023-11-11T02:42:21.130Z,99.99
2023-11-11T02:43:21.064Z,99.99
2023-11-11T02:44:21.086Z,99.99
2023-11-11T02:45:21.050Z,99.99
2023-11-11T02:46:21.127Z,99.99
2023-11-11T02:47:21.086Z,99.99
2023-11-11T02:48:21.026Z,99.99
2023-11-11T02:49:20.997Z,99.99
2023-11-11T02:50:21.010Z,99.99
2023-11-11T02:51:21.005Z,99.99
2023-11-11T02:52:20.990Z,99.99
2023-11-11T02:53:20.971Z,99.99
2023-11-11T02:54:20.964Z,99.99
2023-11-11T02:55:20.965Z,99.99
2023-11-11T02:56:20.932Z,99.99
2023-11-11T02:57:20.929Z,99.99
2023-11-11T02:58:20.908Z,99.99
2023-11-11T02:59:20.919Z,99.99
2023-11-11T03:00:20.951Z,99.99
2023-11-11T03:01:20.927Z,99.99
2023-11-11T03:02:20.925Z,99.99
2023-11-11T03:03:20.908Z,99.99
2023-11-11T03:04:20.942Z,99.99
2023-11-11T03:05:20.827Z,99.99
2023-11-11T03:06:20.851Z,99.99
2023-11-11T03:07:20.839Z,99.99
2023-11-11T03:12:20.172Z,99.99
2023-11-11T03:13:21.055Z,99.99
2023-11-11T03:14:21.084Z,99.99
2023-11-11T03:15:21.095Z,99.99
2023-11-11T03:16:21.062Z,99.99
2023-11-11T03:17:20.993Z,99.99
2023-11-11T03:18:20.997Z,99.99
2023-11-11T03:19:20.978Z,99.99
2023-11-11T03:20:20.964Z,99.99
2023-11-11T03:23:51.282Z,99.99
2023-11-11T03:24:52.295Z,99.99
2023-11-11T03:25:52.243Z,99.99
2023-11-11T03:26:52.217Z,99.99
2023-11-11T03:27:52.233Z,99.99
2023-11-11T03:28:52.190Z,99.99
2023-11-11T03:29:52.282Z,99.99
2023-11-11T03:30:52.216Z,99.99
2023-11-11T03:31:52.196Z,99.99
2023-11-11T03:32:52.214Z,99.99
2023-11-11T03:33:52.235Z,99.99
2023-11-11T03:42:01.010Z,99.99
2023-11-11T03:43:02.012Z,99.99
2023-11-11T03:44:01.926Z,99.99
2023-11-11T03:45:01.924Z,99.99
2023-11-11T03:46:01.940Z,99.99
2023-11-11T03:47:01.877Z,99.99
2023-11-11T03:48:01.952Z,99.99
2023-11-11T03:49:01.846Z,99.99
2023-11-11T03:50:01.835Z,99.99
2023-11-11T03:51:01.827Z,99.99
2023-11-11T03:52:01.846Z,99.99
2023-11-11T03:53:01.803Z,99.99
2023-11-11T03:54:01.797Z,99.99
2023-11-11T03:55:01.789Z,99.99
2023-11-11T03:56:01.770Z,99.99
2023-11-11T03:57:01.777Z,99.99
2023-11-11T03:58:01.770Z,99.99
2023-11-11T04:01:06.329Z,99.99
2023-11-11T04:02:07.297Z,99.99
2023-11-11T04:03:07.290Z,99.99
2023-11-11T04:04:07.362Z,99.99
2023-11-11T04:05:07.346Z,99.99
2023-11-11T04:06:07.332Z,99.99
2023-11-11T04:19:29.035Z,99.99
2023-11-11T04:20:30.044Z,99.99
2023-11-11T04:21:30.063Z,99.99
2023-11-11T04:22:30.043Z,99.99
2023-11-11T04:23:30.070Z,99.99
2023-11-11T04:24:30.003Z,99.99
2023-11-11T04:25:29.970Z,99.99
2023-11-11T04:26:29.990Z,99.99
2023-11-11T04:27:30.026Z,99.99
2023-11-11T04:28:29.977Z,99.99
2023-11-11T04:29:29.965Z,99.99
2023-11-11T04:30:30.035Z,99.99
2023-11-11T04:31:29.920Z,99.99
2023-11-11T04:32:29.911Z,99.99
2023-11-11T05:20:03.746Z,99.99
2023-11-11T05:21:04.727Z,99.99
2023-11-11T05:22:04.707Z,99.99
2023-11-11T05:23:04.754Z,99.99
2023-11-11T05:24:04.707Z,99.99
2023-11-11T05:25:04.712Z,99.99
2023-11-11T05:26:04.663Z,99.99
2023-11-11T05:27:04.672Z,99.99
2023-11-11T05:28:04.676Z,99.99
2023-11-11T05:29:04.683Z,99.99
2023-11-11T05:30:04.632Z,99.99
2023-11-11T05:31:04.657Z,99.99
2023-11-11T05:32:04.650Z,99.99
2023-11-11T05:33:04.640Z,99.99
2023-11-11T05:34:04.664Z,99.99
2023-11-11T05:35:04.618Z,99.99
2023-11-11T05:36:04.560Z,99.99
2023-11-11T05:37:04.582Z,99.99
2023-11-11T05:38:04.538Z,99.99
2023-11-11T05:39:04.561Z,99.99
2023-11-11T05:40:04.566Z,99.99
2023-11-11T05:41:04.506Z,99.99
2023-11-11T05:42:06.587Z,99.99
2023-11-11T05:43:04.512Z,99.99
2023-11-11T05:44:04.491Z,99.99
2023-11-11T05:45:04.496Z,99.99
2023-11-11T05:46:04.509Z,99.99
2023-11-11T05:47:04.427Z,99.99
2023-11-11T05:48:04.449Z,99.99
2023-11-11T05:49:04.379Z,99.99
2023-11-11T05:50:04.366Z,99.99
2023-11-11T05:51:04.353Z,99.99
2023-11-11T05:52:04.367Z,99.99
2023-11-11T05:53:04.330Z,99.99
2023-11-11T05:54:04.335Z,99.99
2023-11-11T05:55:04.316Z,99.99
2023-11-11T05:56:04.330Z,99.99
2023-11-11T05:57:04.340Z,99.99
2023-11-11T05:58:04.314Z,99.99
2023-11-11T05:59:04.337Z,99.99
2023-11-11T06:00:04.271Z,99.99
2023-11-11T06:01:04.332Z,99.99
2023-11-11T06:02:04.279Z,99.99
2023-11-11T06:03:04.350Z,99.99
2023-11-11T06:04:04.328Z,99.99
2023-11-11T06:05:04.258Z,99.99
2023-11-11T06:06:04.231Z,99.99
2023-11-11T06:07:04.230Z,99.99
2023-11-11T06:08:04.197Z,99.99
2023-11-11T06:09:04.184Z,99.99
2023-11-11T06:10:04.205Z,99.99
2023-11-11T06:11:04.188Z,99.99
2023-11-11T06:12:04.136Z,99.99
2023-11-11T06:13:04.165Z,99.99
2023-11-11T06:14:04.118Z,99.99
2023-11-11T06:15:04.129Z,99.99
2023-11-11T06:16:04.319Z,99.99
2023-11-11T06:17:04.122Z,99.99
2023-11-11T06:18:04.141Z,99.99
2023-11-11T06:19:04.068Z,99.99
2023-11-11T06:20:04.065Z,99.99
2023-11-11T06:21:04.073Z,99.99
2023-11-11T06:22:04.063Z,99.99
2023-11-11T06:24:04.071Z,99.99
2023-11-11T06:25:04.037Z,99.99
2023-11-11T06:26:03.994Z,99.99
2023-11-11T06:27:04.005Z,99.99
2023-11-11T06:28:04.034Z,99.99
2023-11-11T06:29:03.967Z,99.99
2023-11-11T06:30:03.993Z,99.99
2023-11-11T06:31:04.034Z,99.99
2023-11-11T06:32:03.982Z,99.99
2023-11-11T06:33:04.173Z,99.99
2023-11-11T06:34:04.084Z,99.99
2023-11-11T06:35:03.935Z,99.99
2023-11-11T06:36:03.917Z,99.99
2023-11-11T06:37:03.924Z,99.99
2023-11-11T06:38:03.927Z,99.99
2023-11-11T06:39:03.871Z,99.99
2023-11-11T06:40:03.954Z,99.99
2023-11-11T06:41:03.901Z,99.99
2023-11-11T06:42:03.872Z,99.99
2023-11-11T06:43:05.676Z,99.99
2023-11-11T06:44:04.566Z,99.99
2023-11-11T06:45:03.961Z,99.99
2023-11-11T06:46:04.004Z,99.99
2023-11-11T06:47:03.843Z,99.99
2023-11-11T06:48:03.913Z,99.99
2023-11-11T06:49:03.845Z,99.99
2023-11-11T06:50:03.797Z,99.99
2023-11-11T06:51:03.763Z,99.99
2023-11-11T06:52:03.836Z,99.99
2023-11-11T06:53:03.754Z,99.99
2023-11-11T06:54:03.733Z,99.99
2023-11-11T06:55:03.699Z,99.99
2023-11-11T06:56:03.699Z,99.99
2023-11-11T06:57:03.690Z,99.99
2023-11-11T06:58:06.530Z,99.99
2023-11-11T06:59:03.663Z,99.99
2023-11-11T07:00:03.700Z,99.99
2023-11-11T07:01:03.743Z,99.99
2023-11-11T07:02:03.758Z,99.99
2023-11-11T07:03:03.618Z,99.99
2023-11-11T07:04:03.679Z,99.99
2023-11-11T07:05:03.602Z,99.99
2023-11-11T07:06:03.566Z,99.99
2023-11-11T07:07:03.569Z,99.99
2023-11-11T07:08:03.582Z,99.99
2023-11-11T07:09:03.558Z,99.99
2023-11-11T07:10:03.540Z,99.99
2023-11-11T07:11:03.530Z,99.99
2023-11-11T07:12:03.515Z,99.99
2023-11-11T07:13:03.508Z,99.99
2023-11-11T07:14:03.529Z,99.99
2023-11-11T07:15:03.476Z,99.99
2023-11-11T07:16:03.549Z,99.99
2023-11-11T07:17:03.478Z,99.99
2023-11-11T07:18:03.531Z,99.99
2023-11-11T07:19:03.506Z,99.99
2023-11-11T07:20:03.457Z,99.99
2023-11-11T07:21:11.046Z,99.99
2023-11-11T07:23:03.375Z,99.99
2023-11-11T07:24:03.378Z,99.99
2023-11-11T07:25:03.412Z,99.99
2023-11-11T07:26:03.366Z,99.99
2023-11-11T07:27:03.345Z,99.99
2023-11-11T07:28:03.368Z,99.99
2023-11-11T07:29:03.311Z,99.99
2023-11-11T07:30:03.308Z,99.99
2023-11-11T07:31:03.287Z,99.99
2023-11-11T07:32:03.287Z,99.99
2023-11-11T07:33:03.353Z,99.99
2023-11-11T07:34:03.292Z,99.99
2023-11-11T07:35:03.259Z,99.99
2023-11-11T07:36:03.246Z,99.99
2023-11-11T07:37:03.231Z,99.99
2023-11-11T07:38:03.238Z,99.99
2023-11-11T07:39:03.256Z,99.99
2023-11-11T07:40:03.196Z,99.99
2023-11-11T07:41:03.179Z,99.99
2023-11-11T07:42:03.176Z,99.99
2023-11-11T07:43:03.182Z,99.99
2023-11-11T07:44:03.173Z,99.99
2023-11-11T07:45:03.158Z,99.99
2023-11-11T07:46:03.241Z,99.99
2023-11-11T07:47:03.119Z,99.99
2023-11-11T07:48:03.135Z,99.99
2023-11-11T07:49:03.135Z,99.99
2023-11-11T07:50:03.131Z,99.99
2023-11-11T07:51:03.126Z,99.99
2023-11-11T07:52:03.078Z,99.99
2023-11-11T07:53:03.096Z,99.99
2023-11-11T07:54:03.052Z,99.99
2023-11-11T07:55:03.084Z,99.99
2023-11-11T07:56:03.047Z,99.99
2023-11-11T07:57:03.038Z,99.99
2023-11-11T07:59:03.042Z,99.99
2023-11-11T08:00:02.996Z,99.99
2023-11-11T08:01:02.992Z,99.99
2023-11-11T08:02:03.027Z,99.99
2023-11-11T08:03:02.971Z,99.99
2023-11-11T08:04:03.002Z,99.99
2023-11-11T08:05:02.967Z,99.99
2023-11-11T08:06:02.951Z,99.99
2023-11-11T08:07:02.922Z,99.99
2023-11-11T08:09:02.910Z,99.99
2023-11-11T08:10:02.906Z,99.99
2023-11-11T08:11:02.889Z,99.99
2023-11-11T08:12:02.895Z,99.99
2023-11-11T08:13:02.868Z,99.99
2023-11-11T08:14:02.852Z,99.99
2023-11-11T08:15:02.858Z,99.99
2023-11-11T08:16:02.898Z,99.74
2023-11-11T08:17:02.832Z,99.74
2023-11-11T08:18:02.871Z,99.85
2023-11-11T08:19:02.863Z,99.85
2023-11-11T08:20:02.773Z,99.23
2023-11-11T08:21:02.790Z,99.23
2023-11-11T08:22:02.762Z,98.92
2023-11-11T08:23:02.753Z,99.29
2023-11-11T08:24:02.759Z,99.39
2023-11-11T08:25:02.721Z,99.29
2023-11-11T08:26:02.761Z,98.88
2023-11-11T08:27:02.722Z,98.67
2023-11-11T08:28:02.694Z,98.36
2023-11-11T08:29:02.698Z,98.21
2023-11-11T08:30:02.690Z,98.21
2023-11-11T08:31:04.402Z,98.21
2023-11-11T08:32:02.689Z,98.11
2023-11-11T08:33:02.737Z,97.80
2023-11-11T08:34:02.738Z,97.55
2023-11-11T08:35:02.650Z,97.24
2023-11-11T08:36:02.609Z,97.44
2023-11-11T08:37:02.645Z,97.24
2023-11-11T08:38:02.593Z,97.03
2023-11-11T08:39:02.608Z,96.83
2023-11-11T08:40:02.635Z,97.14
2023-11-11T08:41:02.577Z,97.24
2023-11-11T08:42:02.550Z,97.24
2023-11-11T08:43:02.569Z,97.24
2023-11-11T08:44:02.547Z,96.72
2023-11-11T08:45:02.534Z,96.52
2023-11-11T08:46:02.600Z,96.93
2023-11-11T08:47:02.600Z,96.78
2023-11-11T08:48:02.618Z,96.68
2023-11-11T08:49:02.678Z,96.68
2023-11-11T08:50:02.495Z,96.58
2023-11-11T08:51:02.467Z,96.47
2023-11-11T08:52:02.454Z,96.17
2023-11-11T08:53:02.441Z,95.55
2023-11-11T08:54:02.450Z,95.30
2023-11-11T08:55:02.422Z,95.40
2023-11-11T08:56:02.461Z,94.99
2023-11-11T08:57:02.402Z,95.20
2023-11-11T08:58:02.523Z,95.30
2023-11-11T08:59:02.375Z,95.25
2023-11-11T09:00:02.372Z,94.74
2023-11-11T09:01:02.479Z,94.37
2023-11-11T09:02:02.386Z,94.48
2023-11-11T09:03:02.390Z,94.89
2023-11-11T09:04:02.448Z,95.05
2023-11-11T09:05:02.320Z,94.64
2023-11-11T09:06:02.312Z,94.12
2023-11-11T09:07:02.360Z,94.02
2023-11-11T09:08:02.264Z,94.18
2023-11-11T09:09:02.308Z,94.18
2023-11-11T09:10:02.357Z,94.18
2023-11-11T09:11:02.239Z,93.57
2023-11-11T09:12:02.268Z,94.08
2023-11-11T09:13:02.284Z,93.12
2023-11-11T09:14:02.237Z,93.32
2023-11-11T09:15:02.201Z,93.21
2023-11-11T09:16:02.225Z,92.91
2023-11-11T09:17:02.194Z,93.12
2023-11-11T09:18:02.198Z,93.42
2023-11-11T09:19:02.248Z,93.93
2023-11-11T09:20:02.157Z,94.04
2023-11-11T09:21:02.160Z,94.29
2023-11-11T09:22:02.165Z,93.87
2023-11-11T09:23:02.133Z,94.39
2023-11-11T09:24:02.116Z,94.59
2023-11-11T09:25:02.140Z,94.59
2023-11-11T09:26:02.089Z,94.70
2023-11-11T09:28:02.142Z,94.65
2023-11-11T09:29:02.067Z,94.76
2023-11-11T09:30:02.062Z,94.76
2023-11-11T09:31:02.082Z,94.55
2023-11-11T09:32:02.032Z,94.24
2023-11-11T09:33:02.573Z,93.46
2023-11-11T09:34:02.022Z,93.52
2023-11-11T09:35:02.009Z,93.52
2023-11-11T09:36:02.005Z,93.83
2023-11-11T09:37:02.055Z,94.45
2023-11-11T09:38:01.979Z,93.99
2023-11-11T09:39:01.947Z,93.68
2023-11-11T09:40:01.996Z,94.51
2023-11-11T09:41:09.489Z,93.74
2023-11-11T09:42:01.920Z,92.93
2023-11-11T09:43:01.969Z,94.05
2023-11-11T09:45:28.584Z,93.33
2023-11-11T09:46:08.488Z,92.78
2023-11-11T09:47:08.429Z,92.57
2023-11-11T09:48:01.875Z,93.08
2023-11-11T09:49:01.863Z,92.32
2023-11-11T09:50:01.872Z,92.43
2023-11-11T09:51:01.817Z,92.74
2023-11-11T09:52:01.815Z,92.53
2023-11-11T09:53:01.821Z,92.06
2023-11-11T09:54:01.809Z,92.06
2023-11-11T09:55:01.793Z,91.75
2023-11-11T09:56:01.898Z,91.75
2023-11-11T09:57:03.541Z,92.10
2023-11-11T09:58:01.770Z,92.00
2023-11-11T09:59:01.751Z,91.74
2023-11-11T10:00:01.759Z,92.80
2023-11-11T10:01:01.740Z,92.80
2023-11-11T10:02:01.769Z,92.91
2023-11-11T10:03:02.079Z,93.12
2023-11-11T10:04:01.800Z,92.91
2023-11-11T10:05:01.697Z,93.12
2023-11-11T10:06:01.667Z,93.21
2023-11-11T10:07:01.659Z,93.52
2023-11-11T10:08:01.674Z,93.12
2023-11-11T10:09:03.591Z,92.97
2023-11-11T10:10:01.639Z,92.46
2023-11-11T10:11:01.618Z,92.51
2023-11-11T10:12:01.617Z,92.72
2023-11-11T10:13:01.605Z,92.36
2023-11-11T10:14:01.584Z,91.35
2023-11-11T10:15:01.574Z,91.14
2023-11-11T10:16:01.570Z,91.28
2023-11-11T10:17:01.589Z,91.44
2023-11-11T10:18:01.584Z,91.08
2023-11-11T10:19:01.567Z,91.86
2023-11-11T10:20:01.591Z,91.03
2023-11-11T10:21:01.521Z,91.03
2023-11-11T10:22:01.508Z,91.14
2023-11-11T10:23:01.512Z,90.99
2023-11-11T10:24:01.524Z,91.20
2023-11-11T10:25:01.477Z,91.40
2023-11-11T10:26:01.517Z,90.69
2023-11-11T10:27:01.454Z,90.28
2023-11-11T10:28:01.432Z,90.69
2023-11-11T10:29:01.433Z,90.48
2023-11-11T10:30:01.417Z,90.58
2023-11-11T10:31:06.227Z,90.37
2023-11-11T10:32:01.460Z,90.17
2023-11-11T10:33:01.481Z,90.54
2023-11-11T10:34:01.378Z,90.54
2023-11-11T10:35:01.388Z,89.72
2023-11-11T10:36:01.345Z,89.51
2023-11-11T10:37:01.370Z,90.13
2023-11-11T10:38:01.354Z,90.64
2023-11-11T10:39:01.321Z,90.44
2023-11-11T10:40:01.338Z,90.34
2023-11-11T10:41:01.289Z,90.30
2023-11-11T10:42:01.305Z,90.30
2023-11-11T10:43:02.590Z,90.19
2023-11-11T10:44:01.260Z,89.68
2023-11-11T10:45:01.295Z,89.83
2023-11-11T10:46:01.265Z,90.23
2023-11-11T10:47:01.235Z,90.75
2023-11-11T10:48:01.253Z,90.75
2023-11-11T10:49:01.221Z,90.75
2023-11-11T10:50:01.245Z,91.16
2023-11-11T10:51:01.207Z,91.09
2023-11-11T10:52:01.200Z,91.30
2023-11-11T10:53:01.600Z,91.50
2023-11-11T10:54:01.169Z,91.71
2023-11-11T10:55:01.187Z,91.56
2023-11-11T10:56:01.144Z,91.87
2023-11-11T10:57:01.136Z,91.87
2023-11-11T10:58:01.126Z,91.56
2023-11-11T10:59:01.111Z,91.05
2023-11-11T11:00:01.110Z,91.77
2023-11-11T11:01:01.134Z,91.56
2023-11-11T11:02:01.148Z,91.46
2023-11-11T11:03:01.183Z,90.39
2023-11-11T11:04:01.213Z,90.70
2023-11-11T11:05:01.085Z,90.25
2023-11-11T11:06:01.043Z,90.62
2023-11-11T11:07:01.025Z,89.50
2023-11-11T11:08:01.019Z,88.94
2023-11-11T11:09:01.008Z,88.74
2023-11-11T11:10:00.999Z,88.53
2023-11-11T11:11:00.971Z,88.18
2023-11-11T11:12:00.970Z,88.29
2023-11-11T11:13:00.945Z,87.82
2023-11-11T11:14:00.966Z,87.92
2023-11-11T11:15:00.941Z,88.12
2023-11-11T11:16:00.940Z,88.12
2023-11-11T11:17:01.010Z,88.12
2023-11-11T11:18:00.907Z,88.12
2023-11-11T11:19:00.901Z,87.92
2023-11-11T11:20:00.881Z,87.82
2023-11-11T11:21:00.867Z,86.32
2023-11-11T11:22:00.856Z,86.98
2023-11-11T11:23:00.871Z,88.31
2023-11-11T11:24:00.857Z,88.00
2023-11-11T11:25:00.820Z,88.20
2023-11-11T11:26:00.829Z,88.31
2023-11-11T11:27:00.806Z,89.23
2023-11-11T11:28:00.824Z,88.92
2023-11-11T11:29:00.783Z,89.53
2023-11-11T11:30:03.138Z,89.33
2023-11-11T11:31:00.786Z,89.43
2023-11-11T11:32:00.879Z,89.33
2023-11-11T11:33:00.776Z,88.96
2023-11-11T11:34:00.732Z,89.17
2023-11-11T11:35:00.732Z,89.17
2023-11-11T11:36:03.422Z,89.68
2023-11-11T11:37:00.722Z,89.89
2023-11-11T11:38:00.705Z,89.06
2023-11-11T11:39:00.701Z,89.06
2023-11-11T11:40:00.691Z,88.76
2023-11-11T11:41:00.663Z,89.68
2023-11-11T11:42:00.665Z,89.03
2023-11-11T11:43:00.659Z,88.82
2023-11-11T11:44:00.665Z,88.62
2023-11-11T11:45:00.635Z,88.76
2023-11-11T11:46:00.646Z,87.63
2023-11-11T11:47:00.760Z,87.84
2023-11-11T11:48:00.626Z,87.57
2023-11-11T11:49:00.596Z,88.08
2023-11-11T11:50:00.637Z,89.21
2023-11-11T11:51:00.593Z,89.51
2023-11-11T11:52:00.552Z,90.28
2023-11-11T11:53:00.561Z,89.97
2023-11-11T11:54:00.534Z,90.07
2023-11-11T11:55:00.554Z,91.20
2023-11-11T11:56:00.521Z,91.40
2023-11-11T11:57:00.519Z,91.30
2023-11-11T11:58:00.491Z,90.58
2023-11-11T11:59:00.862Z,90.89
2023-11-11T12:00:00.452Z,91.40
2023-11-11T12:01:00.442Z,90.48
2023-11-11T12:02:00.511Z,90.58
2023-11-11T12:03:00.541Z,90.17
2023-11-11T12:04:00.606Z,90.03
2023-11-11T12:05:01.328Z,89.72
2023-11-11T12:06:00.400Z,89.51
2023-11-11T12:07:00.400Z,90.23
2023-11-11T12:08:00.428Z,90.44
2023-11-11T12:09:00.359Z,89.76
2023-11-11T12:10:00.386Z,90.48
2023-11-11T12:11:00.436Z,89.97
2023-11-11T12:12:00.456Z,89.76
2023-11-11T12:13:00.361Z,89.97
2023-11-11T12:14:00.356Z,89.56
2023-11-11T12:15:00.318Z,89.87
2023-11-11T12:16:00.315Z,90.48
2023-11-11T12:17:00.378Z,89.76
2023-11-11T12:18:00.365Z,90.28
2023-11-11T12:19:00.271Z,90.58
2023-11-11T12:20:00.360Z,90.07
2023-11-11T12:21:02.396Z,91.20
2023-11-11T12:22:00.243Z,91.91
2023-11-11T12:23:00.268Z,91.40
2023-11-11T12:24:00.217Z,91.50
2023-11-11T12:25:00.255Z,92.22
2023-11-11T12:26:00.290Z,92.22
2023-11-11T12:27:02.968Z,92.32
2023-11-11T12:28:00.196Z,92.63
2023-11-11T12:29:00.232Z,92.36
2023-11-11T12:30:00.197Z,92.47
2023-11-11T12:31:00.158Z,93.49
2023-11-11T12:32:00.140Z,93.80
2023-11-11T12:33:00.130Z,93.19
2023-11-11T12:34:00.106Z,92.78
2023-11-11T12:35:00.142Z,92.47
2023-11-11T12:36:00.110Z,92.78
2023-11-11T12:37:00.077Z,93.49
2023-11-11T12:38:00.109Z,93.19
2023-11-11T12:39:00.068Z,93.08
2023-11-11T12:40:00.047Z,93.39
2023-11-11T12:41:00.110Z,93.80
2023-11-11T12:42:00.034Z,92.88
2023-11-11T12:43:00.050Z,93.19
2023-11-11T12:44:00.064Z,93.29
2023-11-11T12:45:00.010Z,93.29
2023-11-11T12:46:01.912Z,93.60
2023-11-11T12:47:00.062Z,93.80
2023-11-11T12:48:00.038Z,94.21
2023-11-11T12:48:59.955Z,94.42
2023-11-11T12:49:59.996Z,94.11
2023-11-11T12:50:59.993Z,94.11
2023-11-11T12:52:00.960Z,94.83
2023-11-11T12:52:59.993Z,94.83
2023-11-11T12:53:59.901Z,95.18
2023-11-11T12:54:59.912Z,94.93
2023-11-11T12:55:59.924Z,94.15
2023-11-11T12:56:59.887Z,94.15
2023-11-11T12:57:59.865Z,94.56
2023-11-11T12:58:59.885Z,94.93
2023-11-11T12:59:59.839Z,95.44
2023-11-11T13:00:59.813Z,94.62
2023-11-11T13:01:59.853Z,94.52
2023-11-11T13:02:59.848Z,94.11
2023-11-11T13:03:59.835Z,94.46
2023-11-11T13:04:59.789Z,94.93
2023-11-11T13:05:59.787Z,94.73
2023-11-11T13:06:59.765Z,94.73
2023-11-11T13:07:59.817Z,95.24
2023-11-11T13:08:59.728Z,95.18
2023-11-11T13:09:59.732Z,94.98
2023-11-11T13:10:59.744Z,94.67
2023-11-11T13:11:59.706Z,95.07
2023-11-11T13:12:59.686Z,95.18
2023-11-11T13:13:59.741Z,95.59
2023-11-11T13:14:59.685Z,95.49
2023-11-11T13:15:59.654Z,94.46
2023-11-11T13:16:59.698Z,92.72
2023-11-11T13:17:59.687Z,92.93
2023-11-11T13:18:59.620Z,93.13
2023-11-11T13:19:59.668Z,93.33
2023-11-11T13:20:59.891Z,92.66
2023-11-11T13:21:59.596Z,92.76
2023-11-11T13:22:59.622Z,92.14
2023-11-11T13:23:59.588Z,92.46
2023-11-11T13:24:59.597Z,92.04
2023-11-11T13:25:59.769Z,92.76
2023-11-11T13:26:59.551Z,93.07
2023-11-11T13:27:59.530Z,93.38
2023-11-11T13:28:59.599Z,93.38
2023-11-11T13:29:59.506Z,93.89
2023-11-11T13:30:59.526Z,93.68
2023-11-11T13:31:59.548Z,93.99
2023-11-11T13:32:59.532Z,93.99
2023-11-11T13:33:59.462Z,94.10
2023-11-11T13:34:59.497Z,94.30
2023-11-11T13:35:59.548Z,93.89
2023-11-11T13:36:59.434Z,94.20
2023-11-11T13:37:59.448Z,94.30
2023-11-11T13:38:59.532Z,95.02
2023-11-11T13:40:01.826Z,95.32
2023-11-11T13:40:59.484Z,95.43
2023-11-11T13:41:59.400Z,94.10
2023-11-11T13:42:59.373Z,94.81
2023-11-11T13:43:59.427Z,94.81
2023-11-11T13:44:59.366Z,94.55
2023-11-11T13:45:59.406Z,94.85
2023-11-11T13:46:59.387Z,95.17
2023-11-11T13:47:59.355Z,95.57
2023-11-11T13:48:59.326Z,95.47
2023-11-11T13:49:59.330Z,95.89
2023-11-11T13:50:59.281Z,95.78
2023-11-11T13:51:59.309Z,96.03
2023-11-11T13:52:59.294Z,96.23
2023-11-11T13:53:59.272Z,96.44
2023-11-11T13:54:59.248Z,96.65
2023-11-11T13:55:59.299Z,96.44
2023-11-11T13:56:59.216Z,96.65
2023-11-11T13:57:59.238Z,96.75
2023-11-11T13:58:59.247Z,97.06
2023-11-11T13:59:59.205Z,97.16
2023-11-11T14:00:59.200Z,97.37
2023-11-11T14:01:59.349Z,97.27
2023-11-11T14:02:59.422Z,97.16
2023-11-11T14:03:59.216Z,97.57
2023-11-11T14:04:59.289Z,97.57
2023-11-11T14:05:59.155Z,97.31
2023-11-11T14:06:59.167Z,97.62
2023-11-11T14:07:59.266Z,98.13
2023-11-11T14:08:59.513Z,98.03
2023-11-11T14:09:59.126Z,98.24
2023-11-11T14:10:59.155Z,98.54
2023-11-11T14:11:59.163Z,98.75
2023-11-11T14:12:59.145Z,98.96
2023-11-11T14:13:59.237Z,98.85
2023-11-11T14:14:59.041Z,98.96
2023-11-11T14:15:59.028Z,99.05
2023-11-11T14:16:59.043Z,99.05
2023-11-11T14:17:59.141Z,99.05
2023-11-11T14:18:58.992Z,98.96
2023-11-11T14:19:59.036Z,99.10
2023-11-11T14:20:58.979Z,99.37
2023-11-11T14:21:58.979Z,99.47
2023-11-11T14:23:01.176Z,99.57
2023-11-11T14:23:58.969Z,99.67
2023-11-11T14:24:58.924Z,99.67
2023-11-11T14:25:58.985Z,99.77
2023-11-11T14:26:58.903Z,99.67
2023-11-11T14:27:58.946Z,99.62